createdAt,value
2023-04-24T00:00:27.861Z,11.23
2023-04-24T00:02:58.889Z,11.50
2023-04-24T00:05:27.349Z,11.73
2023-04-24T00:07:56.223Z,12.57
2023-04-24T00:10:24.309Z,11.43
2023-04-24T00:12:52.361Z,12.53
2023-04-24T00:15:20.322Z,12.00
2023-04-24T00:17:48.678Z,12.03
2023-04-24T00:20:18.155Z,11.23
2023-04-24T00:22:46.147Z,11.70
2023-04-24T00:25:14.112Z,11.10
2023-04-24T00:27:42.303Z,12.60
2023-04-24T00:30:11.137Z,13.07
2023-04-24T00:32:39.218Z,14.00
2023-04-24T00:35:08.279Z,14.67
2023-04-24T00:37:37.815Z,17.17
2023-04-24T00:40:07.339Z,16.03
2023-04-24T00:42:35.919Z,17.20
2023-04-24T00:45:05.252Z,17.17
2023-04-24T00:47:34.736Z,16.57
2023-04-24T00:50:04.107Z,18.90
2023-04-24T00:52:33.170Z,17.40
2023-04-24T00:55:02.542Z,17.93
2023-04-24T00:57:30.970Z,18.30
2023-04-24T00:59:59.315Z,19.00
2023-04-24T01:02:27.976Z,18.60
2023-04-24T01:04:56.213Z,18.53
2023-04-24T01:07:24.478Z,18.67
2023-04-24T01:09:53.216Z,19.20
2023-04-24T01:12:22.611Z,19.53
2023-04-24T01:14:51.209Z,18.40
2023-04-24T01:17:19.264Z,19.47
2023-04-24T01:19:47.227Z,18.43
2023-04-24T01:22:17.312Z,18.70
2023-04-24T01:24:45.415Z,17.50
2023-04-24T01:27:13.507Z,18.60
2023-04-24T01:29:42.046Z,18.23
2023-04-24T01:32:10.713Z,17.53
2023-04-24T01:34:39.363Z,17.50
2023-04-24T01:37:07.353Z,18.00
2023-04-24T01:39:36.985Z,17.83
2023-04-24T01:42:05.119Z,17.60
2023-04-24T01:44:33.475Z,17.93
2023-04-24T01:47:03.047Z,18.13
2023-04-24T01:49:31.396Z,16.33
2023-04-24T01:51:59.345Z,17.53
2023-04-24T01:54:27.420Z,17.60
2023-04-24T01:56:56.914Z,16.93
2023-04-24T01:59:27.323Z,16.47
2023-04-24T02:01:55.327Z,16.98
2023-04-24T02:04:23.475Z,16.20
2023-04-24T02:06:51.735Z,15.10
2023-04-24T02:09:19.715Z,16.23
2023-04-24T02:11:47.658Z,16.55
2023-04-24T02:14:16.993Z,15.80
2023-04-24T02:16:45.171Z,16.20
2023-04-24T02:19:13.270Z,16.03
2023-04-24T02:21:41.247Z,14.63
2023-04-24T02:24:09.197Z,15.57
2023-04-24T02:26:37.190Z,14.33
2023-04-24T02:29:05.163Z,13.50
2023-04-24T02:31:34.899Z,15.00
2023-04-24T02:34:02.914Z,14.63
2023-04-24T02:36:31.319Z,13.47
2023-04-24T02:38:59.316Z,14.03
2023-04-24T02:41:32.264Z,13.97
2023-04-24T02:44:00.406Z,13.07
2023-04-24T02:46:28.483Z,13.93
2023-04-24T02:48:57.896Z,14.30
2023-04-24T02:51:26.148Z,14.10
2023-04-24T02:53:54.089Z,14.17
2023-04-24T02:56:22.050Z,14.80
2023-04-24T02:58:50.015Z,13.67
2023-04-24T03:01:18.941Z,13.27
2023-04-24T03:03:47.073Z,14.30
2023-04-24T03:06:16.631Z,13.90
2023-04-24T03:08:44.602Z,12.93
2023-04-24T03:11:12.515Z,13.23
2023-04-24T03:13:40.737Z,13.80
2023-04-24T03:16:08.717Z,14.33
2023-04-24T03:18:36.716Z,13.90
2023-04-24T03:21:05.035Z,14.60
2023-04-24T03:23:34.358Z,14.87
2023-04-24T03:26:03.358Z,15.07
2023-04-24T03:28:31.333Z,16.37
2023-04-24T03:30:59.286Z,15.93
2023-04-24T03:33:27.241Z,16.77
2023-04-24T03:35:55.173Z,17.13
2023-04-24T03:38:23.140Z,16.65
2023-04-24T03:40:52.454Z,18.23
2023-04-24T03:43:20.414Z,18.67
2023-04-24T03:45:48.467Z,18.27
2023-04-24T03:48:16.490Z,19.10
2023-04-24T03:50:44.472Z,19.37
2023-04-24T03:53:12.439Z,19.20
2023-04-24T03:55:40.439Z,18.33
2023-04-24T03:58:09.749Z,18.13
2023-04-24T04:00:38.553Z,18.73
2023-04-24T04:03:06.856Z,19.30
2023-04-24T04:05:35.081Z,18.10
2023-04-24T04:08:03.110Z,17.77
2023-04-24T04:10:31.090Z,19.40
2023-04-24T04:12:59.148Z,17.90
2023-04-24T04:15:28.511Z,19.47
2023-04-24T04:17:56.576Z,17.33
2023-04-24T04:20:24.792Z,16.93
2023-04-24T04:22:52.721Z,17.53
2023-04-24T04:25:20.898Z,18.33
2023-04-24T04:27:49.589Z,17.87
2023-04-24T04:30:17.534Z,17.60
2023-04-24T04:32:46.896Z,16.97
2023-04-24T04:35:15.006Z,17.60
2023-04-24T04:37:42.951Z,18.23
2023-04-24T04:40:12.870Z,16.30
2023-04-24T04:42:41.709Z,16.70
2023-04-24T04:45:12.031Z,15.68
2023-04-24T04:47:40.560Z,15.83
2023-04-24T04:50:11.599Z,16.27
2023-04-24T04:52:39.621Z,15.77
2023-04-24T04:55:08.688Z,14.70
2023-04-24T04:57:36.760Z,15.43
2023-04-24T05:00:05.805Z,14.57
2023-04-24T05:02:33.889Z,13.93
2023-04-24T05:05:02.116Z,13.40
2023-04-24T05:07:31.623Z,13.40
2023-04-24T05:09:59.594Z,12.50
2023-04-24T05:12:27.964Z,13.07
2023-04-24T05:14:56.181Z,11.57
2023-04-24T05:17:24.278Z,10.98
2023-04-24T05:19:52.491Z,10.77
2023-04-24T05:22:21.992Z,10.43
2023-04-24T05:24:51.351Z,10.63
2023-04-24T05:27:19.327Z,10.45
2023-04-24T05:29:47.289Z,10.15
2023-04-24T05:32:15.309Z,9.63
2023-04-24T05:34:43.233Z,9.95
2023-04-24T05:37:11.224Z,10.35
2023-04-24T05:39:39.357Z,10.05
2023-04-24T05:42:08.966Z,11.13
2023-04-24T05:44:36.938Z,10.07
2023-04-24T05:47:05.724Z,9.27
2023-04-24T05:49:33.750Z,8.98
2023-04-24T05:52:01.728Z,8.30
2023-04-24T05:54:29.738Z,8.50
2023-04-24T05:56:57.730Z,8.20
2023-04-24T05:59:27.456Z,8.65
2023-04-24T06:01:55.422Z,8.60
2023-04-24T06:04:23.822Z,8.77
2023-04-24T06:06:56.748Z,8.27
2023-04-24T06:09:24.908Z,8.60
2023-04-24T06:11:53.957Z,8.18
2023-04-24T06:14:22.253Z,8.20
2023-04-24T06:16:51.988Z,9.55
2023-04-24T06:19:20.108Z,8.48
2023-04-24T06:21:48.252Z,8.00
2023-04-24T06:24:17.023Z,8.57
2023-04-24T06:26:45.058Z,9.48
2023-04-24T06:29:12.990Z,8.43
2023-04-24T06:31:41.224Z,8.60
2023-04-24T06:34:10.623Z,8.70
2023-04-24T06:36:38.780Z,8.40
2023-04-24T06:39:06.988Z,8.20
2023-04-24T06:41:34.992Z,8.60
2023-04-24T06:44:03.436Z,8.02
2023-04-24T06:46:31.666Z,8.68
2023-04-24T06:48:59.638Z,7.65
2023-04-24T06:51:29.807Z,7.50
2023-04-24T06:53:57.980Z,7.95
2023-04-24T06:56:26.231Z,8.00
2023-04-24T06:58:54.886Z,8.13
2023-04-24T07:01:23.018Z,8.20
2023-04-24T07:03:51.182Z,9.13
2023-04-24T07:06:22.433Z,7.72
2023-04-24T07:08:51.968Z,8.88
2023-04-24T07:11:19.959Z,9.27
2023-04-24T07:13:47.928Z,9.40
2023-04-24T07:16:15.954Z,7.53
2023-04-24T07:18:44.489Z,9.98
2023-04-24T07:21:12.763Z,7.07
2023-04-24T07:23:42.294Z,7.22
2023-04-24T07:26:11.734Z,7.10
2023-04-24T07:28:39.720Z,7.35
2023-04-24T07:31:07.812Z,9.57
2023-04-24T07:33:37.380Z,7.63
2023-04-24T07:36:06.217Z,7.88
2023-04-24T07:38:36.436Z,7.40
2023-04-24T07:41:07.263Z,7.40
2023-04-24T07:43:36.870Z,7.22
2023-04-24T07:46:06.086Z,7.70
2023-04-24T07:48:35.753Z,7.30
2023-04-24T07:51:03.921Z,7.05
2023-04-24T07:53:31.876Z,7.60
2023-04-24T07:56:00.088Z,7.18
2023-04-24T07:58:28.277Z,7.25
2023-04-24T08:00:58.423Z,6.65
2023-04-24T08:03:26.981Z,7.18
2023-04-24T08:05:55.462Z,7.43
2023-04-24T08:08:25.058Z,7.63
2023-04-24T08:10:53.817Z,8.15
2023-04-24T08:13:21.941Z,7.70
2023-04-24T08:15:50.115Z,7.68
2023-04-24T08:18:19.879Z,7.65
2023-04-24T08:20:47.934Z,9.65
2023-04-24T08:23:16.113Z,7.75
2023-04-24T08:25:44.141Z,8.50
2023-04-24T08:28:12.399Z,8.50
2023-04-24T08:30:40.670Z,7.82
2023-04-24T08:33:08.983Z,8.32
2023-04-24T08:35:38.667Z,7.72
2023-04-24T08:38:06.842Z,7.78
2023-04-24T08:40:36.864Z,8.43
2023-04-24T08:43:06.061Z,6.95
2023-04-24T08:45:35.365Z,7.10
2023-04-24T08:48:04.562Z,6.72
2023-04-24T08:50:34.688Z,7.47
2023-04-24T08:53:05.134Z,6.18
2023-04-24T08:55:34.746Z,6.30
2023-04-24T08:58:04.298Z,6.72
2023-04-24T09:00:32.445Z,6.78
2023-04-24T09:03:02.669Z,7.05
2023-04-24T09:05:31.259Z,6.78
2023-04-24T09:08:00.154Z,7.45
2023-04-24T09:10:31.611Z,6.60
2023-04-24T09:13:02.907Z,6.20
2023-04-24T09:15:31.822Z,6.35
2023-04-24T09:18:00.212Z,6.30
2023-04-24T09:20:28.252Z,5.90
2023-04-24T09:22:57.111Z,6.22
2023-04-24T09:25:27.475Z,6.28
2023-04-24T09:27:56.848Z,6.50
2023-04-24T09:30:25.077Z,6.22
2023-04-24T09:33:12.262Z,6.68
2023-04-24T09:35:44.015Z,6.68
2023-04-24T09:38:12.365Z,6.57
2023-04-24T09:40:42.366Z,6.25
2023-04-24T09:43:13.579Z,6.45
2023-04-24T09:45:42.381Z,6.35
2023-04-24T09:48:12.235Z,6.45
2023-04-24T09:50:40.455Z,6.68
2023-04-24T09:53:09.941Z,6.03
2023-04-24T09:55:42.030Z,6.57
2023-04-24T09:58:10.557Z,7.07
2023-04-24T10:00:40.047Z,6.60
2023-04-24T10:03:09.296Z,7.07
2023-04-24T10:05:39.790Z,7.63
2023-04-24T10:08:09.754Z,6.95
2023-04-24T10:10:45.044Z,7.22
2023-04-24T10:13:15.328Z,6.60
2023-04-24T10:15:45.366Z,7.60
2023-04-24T10:18:13.802Z,6.93
2023-04-24T10:20:42.562Z,6.70
2023-04-24T10:23:10.612Z,7.13
2023-04-24T10:25:38.858Z,6.97
2023-04-24T10:28:09.756Z,7.22
2023-04-24T10:30:39.117Z,6.85
2023-04-24T10:33:10.555Z,6.80
2023-04-24T10:35:43.692Z,6.80
2023-04-24T10:38:15.127Z,7.05
2023-04-24T10:40:44.707Z,7.20
2023-04-24T10:43:12.952Z,7.25
2023-04-24T10:45:41.280Z,7.30
2023-04-24T10:48:14.744Z,7.15
2023-04-24T10:50:48.012Z,6.85
2023-04-24T10:53:19.189Z,7.45
2023-04-24T10:55:49.532Z,7.10
2023-04-24T10:58:18.739Z,6.85
2023-04-24T11:00:57.120Z,7.65
2023-04-24T11:03:28.979Z,7.80
2023-04-24T11:06:02.882Z,7.40
2023-04-24T11:08:39.390Z,7.20
2023-04-24T11:11:12.230Z,7.20
2023-04-24T11:14:07.583Z,6.97
2023-04-24T11:16:39.367Z,7.00
2023-04-24T11:19:10.903Z,7.30
2023-04-24T11:21:43.873Z,6.90
2023-04-24T11:24:29.054Z,7.35
2023-04-24T11:26:58.993Z,8.02
2023-04-24T11:29:41.928Z,8.07
2023-04-24T11:32:27.638Z,7.72
2023-04-24T11:34:58.296Z,8.05
2023-04-24T11:37:28.661Z,8.15
2023-04-24T11:39:59.140Z,7.75
2023-04-24T11:42:27.793Z,7.78
2023-04-24T11:44:57.730Z,7.93
2023-04-24T11:47:31.234Z,7.75
2023-04-24T11:50:01.956Z,8.73
2023-04-24T11:52:30.915Z,7.85
2023-04-24T11:54:59.431Z,8.52
2023-04-24T11:57:30.003Z,9.55
2023-04-24T11:59:58.050Z,7.97
2023-04-24T12:02:27.057Z,8.82
2023-04-24T12:04:55.771Z,8.10
2023-04-24T12:07:26.497Z,7.30
2023-04-24T12:09:59.479Z,7.00
2023-04-24T12:12:29.260Z,8.20
2023-04-24T12:14:59.607Z,7.95
2023-04-24T12:17:29.724Z,7.72
2023-04-24T12:20:00.368Z,7.50
2023-04-24T12:22:29.807Z,8.05
2023-04-24T12:25:02.506Z,7.72
2023-04-24T12:27:35.065Z,7.85
2023-04-24T12:30:04.880Z,7.55
2023-04-24T12:32:33.217Z,7.35
2023-04-24T12:35:01.238Z,7.00
2023-04-24T12:37:37.448Z,6.50
2023-04-24T12:40:08.840Z,6.57
2023-04-24T12:42:38.197Z,7.30
2023-04-24T12:45:09.128Z,6.88
2023-04-24T12:47:37.755Z,7.25
2023-04-24T12:50:07.074Z,7.00
2023-04-24T12:52:36.683Z,7.00
2023-04-24T12:55:05.888Z,6.80
2023-04-24T12:57:33.884Z,6.82
2023-04-24T13:00:01.836Z,6.60
2023-04-24T13:02:32.608Z,6.07
2023-04-24T13:05:01.248Z,6.40
2023-04-24T13:07:30.067Z,6.18
2023-04-24T13:09:59.639Z,5.90
2023-04-24T13:12:27.813Z,6.00
2023-04-24T13:14:56.803Z,6.15
2023-04-24T13:17:24.843Z,6.18
2023-04-24T13:19:53.992Z,5.78
2023-04-24T13:22:23.119Z,6.68
2023-04-24T13:24:51.103Z,5.88
2023-04-24T13:27:21.144Z,5.88
2023-04-24T13:29:49.124Z,6.13
2023-04-24T13:32:17.346Z,6.20
2023-04-24T13:34:45.681Z,6.32
2023-04-24T13:37:13.718Z,6.20
2023-04-24T13:39:42.442Z,6.15
2023-04-24T13:42:11.813Z,5.97
2023-04-24T13:44:41.417Z,6.22
2023-04-24T13:47:09.412Z,6.50
2023-04-24T13:49:37.469Z,5.82
2023-04-24T13:52:05.518Z,6.65
2023-04-24T13:54:33.812Z,6.75
2023-04-24T13:57:03.948Z,6.80
2023-04-24T13:59:32.035Z,6.68
2023-04-24T14:02:01.363Z,7.43
2023-04-24T14:04:29.444Z,7.35
2023-04-24T14:06:57.741Z,7.70
2023-04-24T14:09:25.745Z,7.53
2023-04-24T14:11:54.201Z,7.78
2023-04-24T14:14:22.165Z,8.23
2023-04-24T14:16:50.203Z,8.00
2023-04-24T14:19:19.541Z,8.05
2023-04-24T14:21:47.494Z,8.35
2023-04-24T14:24:15.899Z,8.20
2023-04-24T14:26:43.892Z,7.95
2023-04-24T14:29:15.060Z,7.53
2023-04-24T14:31:43.893Z,7.88
2023-04-24T14:34:11.930Z,7.80
2023-04-24T14:36:41.556Z,7.75
2023-04-24T14:39:09.558Z,7.30
2023-04-24T14:41:38.258Z,7.95
2023-04-24T14:44:06.653Z,7.03
2023-04-24T14:46:34.912Z,6.68
2023-04-24T14:49:03.122Z,6.32
2023-04-24T14:51:31.438Z,6.82
2023-04-24T14:54:00.789Z,5.90
2023-04-24T14:56:28.844Z,6.18
2023-04-24T14:58:57.351Z,6.18
2023-04-24T15:01:26.000Z,5.70
2023-04-24T15:03:54.314Z,5.95
2023-04-24T15:06:22.641Z,6.20
2023-04-24T15:08:51.052Z,6.25
2023-04-24T15:11:20.945Z,6.25
2023-04-24T15:13:49.153Z,7.00
2023-04-24T15:16:17.578Z,6.35
2023-04-24T15:18:45.991Z,6.10
2023-04-24T15:21:14.251Z,6.20
2023-04-24T15:23:42.381Z,6.38
2023-04-24T15:26:10.444Z,6.75
2023-04-24T15:28:39.812Z,6.45
2023-04-24T15:31:07.842Z,6.43
2023-04-24T15:33:35.824Z,6.57
2023-04-24T15:36:03.769Z,6.50
2023-04-24T15:38:31.763Z,6.63
2023-04-24T15:40:59.817Z,6.97
2023-04-24T15:43:27.784Z,6.18
2023-04-24T15:45:57.672Z,6.80
2023-04-24T15:48:25.776Z,6.60
2023-04-24T15:50:53.809Z,6.45
2023-04-24T15:53:22.975Z,6.40
2023-04-24T15:55:51.494Z,6.30
2023-04-24T15:58:21.497Z,6.50
2023-04-24T16:00:50.032Z,6.40
2023-04-24T16:03:19.505Z,6.53
2023-04-24T16:05:47.643Z,6.05
2023-04-24T16:08:15.762Z,6.30
2023-04-24T16:10:44.246Z,6.32
2023-04-24T16:13:12.290Z,6.72
2023-04-24T16:15:41.326Z,6.50
2023-04-24T16:18:09.411Z,7.20
2023-04-24T16:20:38.779Z,6.43
2023-04-24T16:23:06.777Z,6.68
2023-04-24T16:25:34.791Z,7.15
2023-04-24T16:28:03.214Z,6.97
2023-04-24T16:30:31.772Z,7.28
2023-04-24T16:32:59.789Z,7.30
2023-04-24T16:35:27.874Z,7.50
2023-04-24T16:37:57.276Z,7.90
2023-04-24T16:40:25.304Z,7.35
2023-04-24T16:42:54.823Z,7.65
2023-04-24T16:45:22.799Z,7.15
2023-04-24T16:47:50.873Z,7.57
2023-04-24T16:50:18.958Z,7.50
2023-04-24T16:52:46.899Z,7.50
2023-04-24T16:55:16.394Z,7.57
2023-04-24T16:57:44.343Z,7.70
2023-04-24T17:00:13.657Z,7.60
2023-04-24T17:02:41.869Z,7.93
2023-04-24T17:05:10.211Z,8.32
2023-04-24T17:07:38.258Z,8.20
2023-04-24T17:10:09.078Z,8.13
2023-04-24T17:12:38.421Z,8.45
2023-04-24T17:15:07.598Z,8.30
2023-04-24T17:17:36.378Z,7.95
2023-04-24T17:20:14.888Z,8.57
2023-04-24T17:22:49.017Z,8.52
2023-04-24T17:25:17.011Z,8.13
2023-04-24T17:27:46.698Z,8.25
2023-04-24T17:30:15.807Z,8.95
2023-04-24T17:32:43.815Z,9.20
2023-04-24T17:35:12.478Z,8.05
2023-04-24T17:37:40.937Z,8.63
2023-04-24T17:40:10.085Z,9.00
2023-04-24T17:42:41.483Z,9.23
2023-04-24T17:45:12.408Z,9.07
2023-04-24T17:47:41.104Z,9.07
2023-04-24T17:50:09.822Z,10.13
2023-04-24T17:52:37.799Z,9.05
2023-04-24T17:55:06.581Z,9.57
2023-04-24T17:57:34.625Z,9.50
2023-04-24T18:00:03.000Z,10.50
2023-04-24T18:02:32.492Z,10.45
2023-04-24T18:05:00.727Z,10.05
2023-04-24T18:07:28.742Z,10.85
2023-04-24T18:09:56.835Z,10.43
2023-04-24T18:12:25.052Z,11.60
2023-04-24T18:14:59.755Z,11.35
2023-04-24T18:17:35.924Z,11.88
2023-04-24T18:20:04.180Z,12.43
2023-04-24T18:22:32.229Z,11.47
2023-04-24T18:25:00.309Z,11.90
2023-04-24T18:27:30.953Z,10.90
2023-04-24T18:29:59.114Z,11.70
2023-04-24T18:32:27.687Z,11.65
2023-04-24T18:34:57.079Z,11.40
2023-04-24T18:37:25.020Z,11.90
2023-04-24T18:39:54.300Z,11.48
2023-04-24T18:42:22.843Z,11.50
2023-04-24T18:44:51.310Z,11.77
2023-04-24T18:47:19.231Z,11.65
2023-04-24T18:49:47.212Z,12.33
2023-04-24T18:52:16.519Z,12.20
2023-04-24T18:54:44.505Z,13.05
2023-04-24T18:57:12.724Z,13.95
2023-04-24T18:59:40.685Z,15.17
2023-04-24T19:02:09.296Z,15.18
2023-04-24T19:04:37.243Z,16.05
2023-04-24T19:07:05.411Z,15.88
2023-04-24T19:09:34.831Z,16.67
2023-04-24T19:12:02.860Z,19.60
2023-04-24T19:14:30.895Z,18.98
2023-04-24T19:16:58.882Z,19.50
2023-04-24T19:19:28.996Z,18.02
2023-04-24T19:21:56.953Z,18.50
2023-04-24T19:24:26.056Z,19.00
2023-04-24T19:26:55.466Z,19.13
2023-04-24T19:29:23.458Z,19.08
2023-04-24T19:31:52.851Z,18.57
2023-04-24T19:34:20.933Z,19.25
2023-04-24T19:36:48.880Z,19.48
2023-04-24T19:39:17.314Z,21.10
2023-04-24T19:41:45.293Z,20.75
2023-04-24T19:44:15.699Z,21.60
2023-04-24T19:46:43.892Z,22.17
2023-04-24T19:49:12.606Z,22.43
2023-04-24T19:51:40.665Z,21.57
2023-04-24T19:54:08.963Z,22.10
2023-04-24T19:56:36.932Z,22.63
2023-04-24T19:59:04.922Z,23.33
2023-04-24T20:01:34.289Z,23.40
2023-04-24T20:04:02.710Z,24.37
2023-04-24T20:06:31.511Z,24.33
2023-04-24T20:09:00.256Z,24.13
2023-04-24T20:11:28.246Z,28.00
2023-04-24T20:13:56.538Z,29.10
2023-04-24T20:16:24.638Z,29.73
2023-04-24T20:18:54.073Z,28.20
2023-04-24T20:21:22.284Z,25.87
2023-04-24T20:23:52.029Z,29.50
2023-04-24T20:26:20.016Z,29.90
2023-04-24T20:28:48.271Z,29.30
2023-04-24T20:31:16.551Z,27.53
2023-04-24T20:33:45.548Z,28.27
2023-04-24T20:36:14.868Z,27.30
2023-04-24T20:38:42.836Z,27.67
2023-04-24T20:41:10.828Z,27.33
2023-04-24T20:43:38.921Z,28.67
2023-04-24T20:46:07.117Z,26.33
2023-04-24T20:48:35.175Z,27.00
2023-04-24T20:51:03.121Z,26.90
2023-04-24T20:53:32.538Z,26.23
2023-04-24T20:56:00.624Z,26.10
2023-04-24T20:58:28.681Z,27.60
2023-04-24T21:00:56.753Z,26.17
2023-04-24T21:03:24.810Z,27.30
2023-04-24T21:05:52.851Z,28.30
2023-04-24T21:08:20.891Z,25.48
2023-04-24T21:10:51.832Z,26.27
2023-04-24T21:13:19.825Z,26.57
2023-04-24T21:15:47.850Z,27.13
2023-04-24T21:18:16.208Z,27.83
2023-04-24T21:20:44.293Z,25.08
2023-04-24T21:23:12.277Z,25.17
2023-04-24T21:25:40.573Z,23.53
2023-04-24T21:28:10.146Z,23.23
2023-04-24T21:30:38.986Z,22.40
2023-04-24T21:33:07.179Z,20.77
2023-04-24T21:35:35.679Z,21.07
2023-04-24T21:38:03.793Z,20.67
2023-04-24T21:40:31.798Z,20.07
2023-04-24T21:42:59.851Z,19.83
2023-04-24T21:45:29.272Z,18.27
2023-04-24T21:47:58.511Z,16.97
2023-04-24T21:50:26.545Z,15.67
2023-04-24T21:52:54.513Z,13.33
2023-04-24T21:55:22.824Z,13.07
2023-04-24T21:57:50.833Z,13.10
2023-04-24T22:00:19.508Z,13.88
2023-04-24T22:02:49.064Z,15.50
2023-04-24T22:05:17.800Z,14.07
2023-04-24T22:07:49.792Z,13.60
2023-04-24T22:10:18.748Z,13.75
2023-04-24T22:12:46.740Z,11.97
2023-04-24T22:15:14.730Z,12.02
2023-04-24T22:17:43.554Z,11.07
2023-04-24T22:20:13.978Z,10.43
2023-04-24T22:22:41.954Z,7.40
2023-04-24T22:25:11.013Z,7.27
2023-04-24T22:27:39.102Z,7.10
2023-04-24T22:30:09.232Z,7.10
2023-04-24T22:32:37.817Z,6.90
2023-04-24T22:35:06.443Z,6.55
2023-04-24T22:37:35.926Z,6.90
2023-04-24T22:40:05.458Z,6.80
2023-04-24T22:42:33.570Z,6.47
2023-04-24T22:45:01.745Z,6.57
2023-04-24T22:47:30.679Z,7.20
2023-04-24T22:49:59.376Z,7.23
2023-04-24T22:52:28.885Z,7.20
2023-04-24T22:54:58.184Z,7.20
2023-04-24T22:57:26.157Z,8.00
2023-04-24T22:59:54.841Z,8.50
2023-04-24T23:02:23.138Z,8.03
2023-04-24T23:04:51.517Z,8.77
2023-04-24T23:07:19.589Z,8.80
2023-04-24T23:09:47.552Z,9.60
2023-04-24T23:12:16.867Z,9.13
2023-04-24T23:14:45.025Z,9.53
2023-04-24T23:17:14.443Z,10.47
2023-04-24T23:19:42.391Z,10.37
2023-04-24T23:22:10.487Z,10.53
2023-04-24T23:24:38.539Z,10.80
2023-04-24T23:27:06.626Z,10.63
2023-04-24T23:29:36.006Z,10.70
2023-04-24T23:32:03.997Z,10.20
2023-04-24T23:34:33.992Z,9.17
2023-04-24T23:37:02.378Z,9.53
2023-04-24T23:39:30.557Z,8.97
2023-04-24T23:41:59.895Z,9.17
2023-04-24T23:44:28.658Z,9.38
2023-04-24T23:46:58.125Z,9.30
2023-04-24T23:49:26.186Z,9.70
2023-04-24T23:51:54.582Z,9.57
2023-04-24T23:54:22.703Z,9.10
2023-04-24T23:56:51.182Z,10.33
2023-04-24T23:59:20.669Z,9.67
